sensor_id;sensor_type;location;lat;lon;timestamp;temperature;humidity
17483;DHT22;8858;52.308;20.994;2023-04-06T00:01:41;3.20;99.90
17483;DHT22;8858;52.308;20.994;2023-04-06T00:04:09;3.20;99.90
17483;DHT22;8858;52.308;20.994;2023-04-06T00:06:37;3.20;99.90
17483;DHT22;8858;52.308;20.994;2023-04-06T00:09:06;3.20;99.90
17483;DHT22;8858;52.308;20.994;2023-04-06T00:11:35;3.20;99.90
17483;DHT22;8858;52.308;20.994;2023-04-06T00:14:03;3.20;99.90
17483;DHT22;8858;52.308;20.994;2023-04-06T00:16:32;3.20;99.90
17483;DHT22;8858;52.308;20.994;2023-04-06T00:19:01;3.20;99.90
17483;DHT22;8858;52.308;20.994;2023-04-06T00:21:30;3.20;99.90
17483;DHT22;8858;52.308;20.994;2023-04-06T00:24:03;3.20;99.90
17483;DHT22;8858;52.308;20.994;2023-04-06T00:26:31;3.20;99.90
17483;DHT22;8858;52.308;20.994;2023-04-06T00:29:00;3.20;99.90
17483;DHT22;8858;52.308;20.994;2023-04-06T00:31:28;3.20;99.90
17483;DHT22;8858;52.308;20.994;2023-04-06T00:34:00;3.30;99.90
17483;DHT22;8858;52.308;20.994;2023-04-06T00:36:28;3.20;99.90
17483;DHT22;8858;52.308;20.994;2023-04-06T00:38:57;3.30;99.90
17483;DHT22;8858;52.308;20.994;2023-04-06T00:41:25;3.30;99.90
17483;DHT22;8858;52.308;20.994;2023-04-06T00:43:54;3.20;99.90
17483;DHT22;8858;52.308;20.994;2023-04-06T00:46:25;3.20;99.90
17483;DHT22;8858;52.308;20.994;2023-04-06T00:48:54;3.20;99.90
17483;DHT22;8858;52.308;20.994;2023-04-06T00:51:27;3.20;99.90
17483;DHT22;8858;52.308;20.994;2023-04-06T00:53:55;3.20;99.90
17483;DHT22;8858;52.308;20.994;2023-04-06T00:56:24;3.20;99.90
17483;DHT22;8858;52.308;20.994;2023-04-06T00:58:55;3.20;99.90
17483;DHT22;8858;52.308;20.994;2023-04-06T01:01:24;3.20;99.90
17483;DHT22;8858;52.308;20.994;2023-04-06T01:03:58;3.20;99.90
17483;DHT22;8858;52.308;20.994;2023-04-06T01:06:28;3.20;99.90
17483;DHT22;8858;52.308;20.994;2023-04-06T01:09:01;3.20;99.90
17483;DHT22;8858;52.308;20.994;2023-04-06T01:11:29;3.20;99.90
17483;DHT22;8858;52.308;20.994;2023-04-06T01:13:59;3.10;99.90
17483;DHT22;8858;52.308;20.994;2023-04-06T01:16:58;3.10;99.90
17483;DHT22;8858;52.308;20.994;2023-04-06T01:19:30;3.10;99.90
17483;DHT22;8858;52.308;20.994;2023-04-06T01:22:00;3.10;99.90
17483;DHT22;8858;52.308;20.994;2023-04-06T01:24:32;3.10;99.90
17483;DHT22;8858;52.308;20.994;2023-04-06T01:27:11;3.10;99.90
17483;DHT22;8858;52.308;20.994;2023-04-06T01:30:02;3.00;99.90
17483;DHT22;8858;52.308;20.994;2023-04-06T01:32:51;3.10;99.90
17483;DHT22;8858;52.308;20.994;2023-04-06T01:35:39;3.10;99.90
17483;DHT22;8858;52.308;20.994;2023-04-06T01:38:12;3.00;99.90
17483;DHT22;8858;52.308;20.994;2023-04-06T01:40:45;3.00;99.90
17483;DHT22;8858;52.308;20.994;2023-04-06T01:43:13;3.00;99.90
17483;DHT22;8858;52.308;20.994;2023-04-06T01:45:56;3.00;99.90
17483;DHT22;8858;52.308;20.994;2023-04-06T01:48:30;2.90;99.90
17483;DHT22;8858;52.308;20.994;2023-04-06T01:51:00;2.90;99.90
17483;DHT22;8858;52.308;20.994;2023-04-06T01:53:32;3.00;99.90
17483;DHT22;8858;52.308;20.994;2023-04-06T01:56:06;3.00;99.90
17483;DHT22;8858;52.308;20.994;2023-04-06T01:58:43;3.00;99.90
17483;DHT22;8858;52.308;20.994;2023-04-06T02:01:16;3.00;99.90
17483;DHT22;8858;52.308;20.994;2023-04-06T02:03:53;2.90;99.90
17483;DHT22;8858;52.308;20.994;2023-04-06T02:06:24;2.90;99.90
17483;DHT22;8858;52.308;20.994;2023-04-06T02:08:54;2.90;99.90
17483;DHT22;8858;52.308;20.994;2023-04-06T02:11:24;2.90;99.90
17483;DHT22;8858;52.308;20.994;2023-04-06T02:13:55;3.00;99.90
17483;DHT22;8858;52.308;20.994;2023-04-06T02:16:31;2.90;99.90
17483;DHT22;8858;52.308;20.994;2023-04-06T02:18:59;2.90;99.90
17483;DHT22;8858;52.308;20.994;2023-04-06T02:21:28;2.80;99.90
17483;DHT22;8858;52.308;20.994;2023-04-06T02:24:00;2.80;99.90
17483;DHT22;8858;52.308;20.994;2023-04-06T02:26:31;2.80;99.90
17483;DHT22;8858;52.308;20.994;2023-04-06T02:28:59;2.80;99.90
17483;DHT22;8858;52.308;20.994;2023-04-06T02:31:28;2.80;99.90
17483;DHT22;8858;52.308;20.994;2023-04-06T02:33:58;2.80;99.90
17483;DHT22;8858;52.308;20.994;2023-04-06T02:36:30;2.80;99.90
17483;DHT22;8858;52.308;20.994;2023-04-06T02:38:59;2.70;99.90
17483;DHT22;8858;52.308;20.994;2023-04-06T02:41:28;2.70;99.90
17483;DHT22;8858;52.308;20.994;2023-04-06T02:44:00;2.60;99.90
17483;DHT22;8858;52.308;20.994;2023-04-06T02:46:39;2.60;99.90
17483;DHT22;8858;52.308;20.994;2023-04-06T02:49:08;2.50;99.90
17483;DHT22;8858;52.308;20.994;2023-04-06T02:51:40;2.60;99.90
17483;DHT22;8858;52.308;20.994;2023-04-06T02:54:23;2.60;99.90
17483;DHT22;8858;52.308;20.994;2023-04-06T02:56:51;2.60;99.90
17483;DHT22;8858;52.308;20.994;2023-04-06T02:59:24;2.60;99.90
17483;DHT22;8858;52.308;20.994;2023-04-06T03:02:09;2.60;99.90
17483;DHT22;8858;52.308;20.994;2023-04-06T03:04:38;2.60;99.90
17483;DHT22;8858;52.308;20.994;2023-04-06T03:07:17;2.60;99.90
17483;DHT22;8858;52.308;20.994;2023-04-06T03:09:46;2.60;99.90
17483;DHT22;8858;52.308;20.994;2023-04-06T03:12:14;2.60;99.90
17483;DHT22;8858;52.308;20.994;2023-04-06T03:15:09;2.50;99.90
17483;DHT22;8858;52.308;20.994;2023-04-06T03:17:41;2.50;99.90
17483;DHT22;8858;52.308;20.994;2023-04-06T03:20:17;2.50;99.90
17483;DHT22;8858;52.308;20.994;2023-04-06T03:22:46;2.50;99.90
17483;DHT22;8858;52.308;20.994;2023-04-06T03:25:18;2.50;99.90
17483;DHT22;8858;52.308;20.994;2023-04-06T03:27:48;2.50;99.90
17483;DHT22;8858;52.308;20.994;2023-04-06T03:30:20;2.50;99.90
17483;DHT22;8858;52.308;20.994;2023-04-06T03:32:48;2.40;99.90
17483;DHT22;8858;52.308;20.994;2023-04-06T03:35:19;2.40;99.90
17483;DHT22;8858;52.308;20.994;2023-04-06T03:37:47;2.30;99.90
17483;DHT22;8858;52.308;20.994;2023-04-06T03:40:16;2.30;99.90
17483;DHT22;8858;52.308;20.994;2023-04-06T03:42:46;2.30;99.90
17483;DHT22;8858;52.308;20.994;2023-04-06T03:45:15;2.30;99.90
17483;DHT22;8858;52.308;20.994;2023-04-06T03:47:48;2.20;99.90
17483;DHT22;8858;52.308;20.994;2023-04-06T03:50:21;2.30;99.90
17483;DHT22;8858;52.308;20.994;2023-04-06T03:52:50;2.30;99.90
17483;DHT22;8858;52.308;20.994;2023-04-06T03:55:19;2.30;99.90
17483;DHT22;8858;52.308;20.994;2023-04-06T03:57:47;2.20;99.90
17483;DHT22;8858;52.308;20.994;2023-04-06T04:00:17;2.30;99.90
17483;DHT22;8858;52.308;20.994;2023-04-06T04:02:49;2.20;99.90
17483;DHT22;8858;52.308;20.994;2023-04-06T04:05:17;2.20;99.90
17483;DHT22;8858;52.308;20.994;2023-04-06T04:07:46;2.20;99.90
17483;DHT22;8858;52.308;20.994;2023-04-06T04:10:15;2.20;99.90
17483;DHT22;8858;52.308;20.994;2023-04-06T04:12:44;2.20;99.90
17483;DHT22;8858;52.308;20.994;2023-04-06T04:15:12;2.20;99.90
17483;DHT22;8858;52.308;20.994;2023-04-06T04:17:41;2.20;99.90
17483;DHT22;8858;52.308;20.994;2023-04-06T04:20:15;2.10;99.90
17483;DHT22;8858;52.308;20.994;2023-04-06T04:22:43;2.00;99.90
17483;DHT22;8858;52.308;20.994;2023-04-06T04:25:13;2.00;99.90
17483;DHT22;8858;52.308;20.994;2023-04-06T04:27:48;2.10;99.90
17483;DHT22;8858;52.308;20.994;2023-04-06T04:30:19;2.10;99.90
17483;DHT22;8858;52.308;20.994;2023-04-06T04:32:48;2.10;99.90
17483;DHT22;8858;52.308;20.994;2023-04-06T04:35:21;2.10;99.90
17483;DHT22;8858;52.308;20.994;2023-04-06T04:37:50;2.10;99.90
17483;DHT22;8858;52.308;20.994;2023-04-06T04:40:19;2.10;99.90
17483;DHT22;8858;52.308;20.994;2023-04-06T04:43:02;2.10;99.90
17483;DHT22;8858;52.308;20.994;2023-04-06T04:45:34;2.10;99.90
17483;DHT22;8858;52.308;20.994;2023-04-06T04:48:15;2.10;99.90
17483;DHT22;8858;52.308;20.994;2023-04-06T04:50:56;2.00;99.90
17483;DHT22;8858;52.308;20.994;2023-04-06T04:53:33;2.10;99.90
17483;DHT22;8858;52.308;20.994;2023-04-06T04:56:12;2.10;99.90
17483;DHT22;8858;52.308;20.994;2023-04-06T04:58:40;2.10;99.90
17483;DHT22;8858;52.308;20.994;2023-04-06T05:01:08;2.10;99.90
17483;DHT22;8858;52.308;20.994;2023-04-06T05:03:41;2.10;99.90
17483;DHT22;8858;52.308;20.994;2023-04-06T05:06:15;2.10;99.90
17483;DHT22;8858;52.308;20.994;2023-04-06T05:08:43;2.10;99.90
17483;DHT22;8858;52.308;20.994;2023-04-06T05:11:15;2.00;99.90
17483;DHT22;8858;52.308;20.994;2023-04-06T05:13:49;2.00;99.90
17483;DHT22;8858;52.308;20.994;2023-04-06T05:16:21;2.00;99.90
17483;DHT22;8858;52.308;20.994;2023-04-06T05:18:50;2.00;99.90
17483;DHT22;8858;52.308;20.994;2023-04-06T05:21:20;2.10;99.90
17483;DHT22;8858;52.308;20.994;2023-04-06T05:23:56;2.10;99.90
17483;DHT22;8858;52.308;20.994;2023-04-06T05:26:26;2.20;99.90
17483;DHT22;8858;52.308;20.994;2023-04-06T05:29:00;2.20;99.90
17483;DHT22;8858;52.308;20.994;2023-04-06T05:31:32;2.30;99.90
17483;DHT22;8858;52.308;20.994;2023-04-06T05:34:00;2.30;99.90
17483;DHT22;8858;52.308;20.994;2023-04-06T05:36:34;2.30;99.90
17483;DHT22;8858;52.308;20.994;2023-04-06T05:39:14;2.30;99.90
17483;DHT22;8858;52.308;20.994;2023-04-06T05:41:49;2.30;99.90
17483;DHT22;8858;52.308;20.994;2023-04-06T05:44:27;2.40;99.90
17483;DHT22;8858;52.308;20.994;2023-04-06T05:47:05;2.50;99.90
17483;DHT22;8858;52.308;20.994;2023-04-06T05:49:34;2.60;99.90
17483;DHT22;8858;52.308;20.994;2023-04-06T05:52:10;2.60;99.90
17483;DHT22;8858;52.308;20.994;2023-04-06T05:54:47;2.60;99.90
17483;DHT22;8858;52.308;20.994;2023-04-06T05:57:16;2.70;99.90
17483;DHT22;8858;52.308;20.994;2023-04-06T05:59:45;2.90;99.90
17483;DHT22;8858;52.308;20.994;2023-04-06T06:02:14;3.00;99.90
17483;DHT22;8858;52.308;20.994;2023-04-06T06:04:50;3.10;99.90
17483;DHT22;8858;52.308;20.994;2023-04-06T06:07:20;3.10;99.90
17483;DHT22;8858;52.308;20.994;2023-04-06T06:09:56;3.10;99.90
17483;DHT22;8858;52.308;20.994;2023-04-06T06:12:30;3.20;99.90
17483;DHT22;8858;52.308;20.994;2023-04-06T06:15:03;3.10;99.90
17483;DHT22;8858;52.308;20.994;2023-04-06T06:17:35;3.30;99.90
17483;DHT22;8858;52.308;20.994;2023-04-06T06:20:06;3.30;99.90
17483;DHT22;8858;52.308;20.994;2023-04-06T06:22:36;3.40;99.90
17483;DHT22;8858;52.308;20.994;2023-04-06T06:25:10;3.30;99.90
17483;DHT22;8858;52.308;20.994;2023-04-06T06:27:38;3.40;99.90
17483;DHT22;8858;52.308;20.994;2023-04-06T06:30:08;3.40;99.90
17483;DHT22;8858;52.308;20.994;2023-04-06T06:32:41;3.50;99.90
17483;DHT22;8858;52.308;20.994;2023-04-06T06:35:09;3.60;99.90
17483;DHT22;8858;52.308;20.994;2023-04-06T06:37:39;3.70;99.90
17483;DHT22;8858;52.308;20.994;2023-04-06T06:40:11;3.70;99.90
17483;DHT22;8858;52.308;20.994;2023-04-06T06:42:45;3.80;99.90
17483;DHT22;8858;52.308;20.994;2023-04-06T06:45:33;3.70;99.90
17483;DHT22;8858;52.308;20.994;2023-04-06T06:48:02;3.70;99.90
17483;DHT22;8858;52.308;20.994;2023-04-06T06:50:30;3.70;99.90
17483;DHT22;8858;52.308;20.994;2023-04-06T06:53:00;3.70;99.90
17483;DHT22;8858;52.308;20.994;2023-04-06T06:55:28;3.80;99.90
17483;DHT22;8858;52.308;20.994;2023-04-06T06:57:57;3.80;99.90
17483;DHT22;8858;52.308;20.994;2023-04-06T07:00:25;3.90;99.90
17483;DHT22;8858;52.308;20.994;2023-04-06T07:02:54;4.00;99.90
17483;DHT22;8858;52.308;20.994;2023-04-06T07:05:25;3.90;99.90
17483;DHT22;8858;52.308;20.994;2023-04-06T07:07:57;4.00;99.90
17483;DHT22;8858;52.308;20.994;2023-04-06T07:10:27;4.00;99.90
17483;DHT22;8858;52.308;20.994;2023-04-06T07:12:57;4.10;99.90
17483;DHT22;8858;52.308;20.994;2023-04-06T07:15:26;4.10;99.90
17483;DHT22;8858;52.308;20.994;2023-04-06T07:17:57;4.30;99.90
17483;DHT22;8858;52.308;20.994;2023-04-06T07:20:26;4.30;99.90
17483;DHT22;8858;52.308;20.994;2023-04-06T07:22:55;4.40;99.90
17483;DHT22;8858;52.308;20.994;2023-04-06T07:25:27;4.50;99.90
17483;DHT22;8858;52.308;20.994;2023-04-06T07:27:56;4.50;99.90
17483;DHT22;8858;52.308;20.994;2023-04-06T07:30:25;4.40;99.90
17483;DHT22;8858;52.308;20.994;2023-04-06T07:32:55;4.50;99.90
17483;DHT22;8858;52.308;20.994;2023-04-06T07:35:24;4.50;99.90
17483;DHT22;8858;52.308;20.994;2023-04-06T07:37:54;4.50;99.90
17483;DHT22;8858;52.308;20.994;2023-04-06T07:40:23;4.50;99.90
17483;DHT22;8858;52.308;20.994;2023-04-06T07:42:55;4.60;99.90
17483;DHT22;8858;52.308;20.994;2023-04-06T07:45:24;4.70;99.90
17483;DHT22;8858;52.308;20.994;2023-04-06T07:47:53;4.60;99.90
17483;DHT22;8858;52.308;20.994;2023-04-06T07:50:24;4.70;99.90
17483;DHT22;8858;52.308;20.994;2023-04-06T07:52:53;4.80;99.90
17483;DHT22;8858;52.308;20.994;2023-04-06T07:55:22;4.90;99.90
17483;DHT22;8858;52.308;20.994;2023-04-06T07:57:50;4.90;99.90
17483;DHT22;8858;52.308;20.994;2023-04-06T08:00:20;4.90;99.90
17483;DHT22;8858;52.308;20.994;2023-04-06T08:02:51;4.90;99.90
17483;DHT22;8858;52.308;20.994;2023-04-06T08:05:19;5.00;99.90
17483;DHT22;8858;52.308;20.994;2023-04-06T08:07:48;5.00;99.90
17483;DHT22;8858;52.308;20.994;2023-04-06T08:10:16;5.10;99.90
17483;DHT22;8858;52.308;20.994;2023-04-06T08:12:45;5.10;99.90
17483;DHT22;8858;52.308;20.994;2023-04-06T08:15:13;5.10;99.90
17483;DHT22;8858;52.308;20.994;2023-04-06T08:17:44;5.00;99.90
17483;DHT22;8858;52.308;20.994;2023-04-06T08:20:16;5.10;99.90
17483;DHT22;8858;52.308;20.994;2023-04-06T08:22:44;5.20;99.90
17483;DHT22;8858;52.308;20.994;2023-04-06T08:25:13;5.20;99.90
17483;DHT22;8858;52.308;20.994;2023-04-06T08:27:41;5.20;99.90
17483;DHT22;8858;52.308;20.994;2023-04-06T08:30:09;5.10;99.90
17483;DHT22;8858;52.308;20.994;2023-04-06T08:32:38;5.20;99.90
17483;DHT22;8858;52.308;20.994;2023-04-06T08:35:09;5.20;99.90
17483;DHT22;8858;52.308;20.994;2023-04-06T08:37:38;5.20;99.90
17483;DHT22;8858;52.308;20.994;2023-04-06T08:40:09;5.10;99.90
17483;DHT22;8858;52.308;20.994;2023-04-06T08:42:40;5.10;99.90
17483;DHT22;8858;52.308;20.994;2023-04-06T08:45:13;4.90;99.90
17483;DHT22;8858;52.308;20.994;2023-04-06T08:47:43;4.50;99.90
17483;DHT22;8858;52.308;20.994;2023-04-06T08:50:13;4.30;99.90
17483;DHT22;8858;52.308;20.994;2023-04-06T08:52:46;4.40;99.90
17483;DHT22;8858;52.308;20.994;2023-04-06T08:55:14;4.50;99.90
17483;DHT22;8858;52.308;20.994;2023-04-06T08:57:43;4.50;99.90
17483;DHT22;8858;52.308;20.994;2023-04-06T09:00:13;4.50;99.90
17483;DHT22;8858;52.308;20.994;2023-04-06T09:02:43;4.50;99.90
17483;DHT22;8858;52.308;20.994;2023-04-06T09:05:15;4.50;99.90
17483;DHT22;8858;52.308;20.994;2023-04-06T09:07:44;4.40;99.90
17483;DHT22;8858;52.308;20.994;2023-04-06T09:10:12;4.30;99.90
17483;DHT22;8858;52.308;20.994;2023-04-06T09:12:42;4.10;99.90
17483;DHT22;8858;52.308;20.994;2023-04-06T09:15:19;4.20;99.90
17483;DHT22;8858;52.308;20.994;2023-04-06T09:17:50;4.30;99.90
17483;DHT22;8858;52.308;20.994;2023-04-06T09:20:26;4.30;99.90
17483;DHT22;8858;52.308;20.994;2023-04-06T09:22:55;4.40;99.90
17483;DHT22;8858;52.308;20.994;2023-04-06T09:25:24;4.40;99.90
17483;DHT22;8858;52.308;20.994;2023-04-06T09:27:59;4.30;99.90
17483;DHT22;8858;52.308;20.994;2023-04-06T09:30:28;4.30;99.90
17483;DHT22;8858;52.308;20.994;2023-04-06T09:32:57;4.30;99.90
17483;DHT22;8858;52.308;20.994;2023-04-06T09:35:29;4.20;99.90
17483;DHT22;8858;52.308;20.994;2023-04-06T09:38:10;4.10;99.90
17483;DHT22;8858;52.308;20.994;2023-04-06T09:40:48;4.10;99.90
17483;DHT22;8858;52.308;20.994;2023-04-06T09:43:28;4.10;99.90
17483;DHT22;8858;52.308;20.994;2023-04-06T09:46:01;4.10;99.90
17483;DHT22;8858;52.308;20.994;2023-04-06T09:48:34;3.90;99.90
17483;DHT22;8858;52.308;20.994;2023-04-06T09:51:06;3.90;99.90
17483;DHT22;8858;52.308;20.994;2023-04-06T09:53:39;3.90;99.90
17483;DHT22;8858;52.308;20.994;2023-04-06T09:56:12;3.70;99.90
17483;DHT22;8858;52.308;20.994;2023-04-06T09:58:44;3.80;99.90
17483;DHT22;8858;52.308;20.994;2023-04-06T10:01:15;3.80;99.90
17483;DHT22;8858;52.308;20.994;2023-04-06T10:03:54;3.80;99.90
17483;DHT22;8858;52.308;20.994;2023-04-06T10:06:28;3.80;99.90
17483;DHT22;8858;52.308;20.994;2023-04-06T10:09:02;3.90;99.90
17483;DHT22;8858;52.308;20.994;2023-04-06T10:11:31;4.00;99.90
17483;DHT22;8858;52.308;20.994;2023-04-06T10:13:59;3.90;99.90
17483;DHT22;8858;52.308;20.994;2023-04-06T10:16:29;3.90;99.90
17483;DHT22;8858;52.308;20.994;2023-04-06T10:19:06;3.80;99.90
17483;DHT22;8858;52.308;20.994;2023-04-06T10:21:40;3.90;99.90
17483;DHT22;8858;52.308;20.994;2023-04-06T10:24:10;3.90;99.90
17483;DHT22;8858;52.308;20.994;2023-04-06T10:26:39;3.90;99.90
17483;DHT22;8858;52.308;20.994;2023-04-06T10:29:08;4.00;99.90
17483;DHT22;8858;52.308;20.994;2023-04-06T10:31:42;3.90;99.90
17483;DHT22;8858;52.308;20.994;2023-04-06T10:34:11;3.80;99.90
17483;DHT22;8858;52.308;20.994;2023-04-06T10:36:40;3.80;99.90
17483;DHT22;8858;52.308;20.994;2023-04-06T10:39:08;3.70;99.90
17483;DHT22;8858;52.308;20.994;2023-04-06T10:41:42;3.80;99.90
17483;DHT22;8858;52.308;20.994;2023-04-06T10:44:17;3.70;99.90
17483;DHT22;8858;52.308;20.994;2023-04-06T10:46:53;3.80;99.90
17483;DHT22;8858;52.308;20.994;2023-04-06T10:49:21;3.70;99.90
17483;DHT22;8858;52.308;20.994;2023-04-06T10:51:55;3.60;99.90
17483;DHT22;8858;52.308;20.994;2023-04-06T10:54:27;3.60;99.90
17483;DHT22;8858;52.308;20.994;2023-04-06T10:56:57;3.60;99.90
17483;DHT22;8858;52.308;20.994;2023-04-06T10:59:29;3.60;99.90
17483;DHT22;8858;52.308;20.994;2023-04-06T11:01:57;3.70;99.90
17483;DHT22;8858;52.308;20.994;2023-04-06T11:04:28;3.80;99.90
17483;DHT22;8858;52.308;20.994;2023-04-06T11:06:59;3.80;99.90
17483;DHT22;8858;52.308;20.994;2023-04-06T11:09:29;3.90;99.90
17483;DHT22;8858;52.308;20.994;2023-04-06T11:12:01;3.80;99.90
17483;DHT22;8858;52.308;20.994;2023-04-06T11:14:29;3.80;99.90
17483;DHT22;8858;52.308;20.994;2023-04-06T11:16:58;3.70;99.90
17483;DHT22;8858;52.308;20.994;2023-04-06T11:19:26;3.70;99.90
17483;DHT22;8858;52.308;20.994;2023-04-06T11:21:55;3.80;99.90
17483;DHT22;8858;52.308;20.994;2023-04-06T11:24:27;3.70;99.90
17483;DHT22;8858;52.308;20.994;2023-04-06T11:26:56;3.70;99.90
17483;DHT22;8858;52.308;20.994;2023-04-06T11:29:26;3.80;99.90
17483;DHT22;8858;52.308;20.994;2023-04-06T11:31:59;3.90;99.90
17483;DHT22;8858;52.308;20.994;2023-04-06T11:34:29;4.00;99.90
17483;DHT22;8858;52.308;20.994;2023-04-06T11:37:00;3.90;99.90
17483;DHT22;8858;52.308;20.994;2023-04-06T11:39:30;3.80;99.90
17483;DHT22;8858;52.308;20.994;2023-04-06T11:42:01;3.80;99.90
17483;DHT22;8858;52.308;20.994;2023-04-06T11:44:36;3.80;99.90
17483;DHT22;8858;52.308;20.994;2023-04-06T11:47:11;3.90;99.90
17483;DHT22;8858;52.308;20.994;2023-04-06T11:49:40;3.90;99.90
17483;DHT22;8858;52.308;20.994;2023-04-06T11:52:16;3.90;99.90
17483;DHT22;8858;52.308;20.994;2023-04-06T11:54:46;4.00;99.90
17483;DHT22;8858;52.308;20.994;2023-04-06T11:57:15;4.00;99.90
17483;DHT22;8858;52.308;20.994;2023-04-06T11:59:43;4.00;99.90
17483;DHT22;8858;52.308;20.994;2023-04-06T12:02:12;4.00;99.90
17483;DHT22;8858;52.308;20.994;2023-04-06T12:04:44;4.10;99.90
17483;DHT22;8858;52.308;20.994;2023-04-06T12:07:13;4.20;99.90
17483;DHT22;8858;52.308;20.994;2023-04-06T12:09:42;4.20;99.90
17483;DHT22;8858;52.308;20.994;2023-04-06T12:12:11;4.10;99.90
17483;DHT22;8858;52.308;20.994;2023-04-06T12:14:40;4.20;99.90
17483;DHT22;8858;52.308;20.994;2023-04-06T12:17:08;4.10;99.90
17483;DHT22;8858;52.308;20.994;2023-04-06T12:19:36;4.20;99.90
17483;DHT22;8858;52.308;20.994;2023-04-06T12:22:04;4.20;99.90
17483;DHT22;8858;52.308;20.994;2023-04-06T12:24:33;4.20;99.90
17483;DHT22;8858;52.308;20.994;2023-04-06T12:27:01;4.30;99.90
17483;DHT22;8858;52.308;20.994;2023-04-06T12:29:41;4.20;99.90
17483;DHT22;8858;52.308;20.994;2023-04-06T12:32:09;4.10;99.90
17483;DHT22;8858;52.308;20.994;2023-04-06T12:34:38;4.00;99.90
17483;DHT22;8858;52.308;20.994;2023-04-06T12:37:09;4.00;99.90
17483;DHT22;8858;52.308;20.994;2023-04-06T12:39:37;4.00;99.90
17483;DHT22;8858;52.308;20.994;2023-04-06T12:42:09;4.00;99.90
17483;DHT22;8858;52.308;20.994;2023-04-06T12:44:37;4.00;99.90
17483;DHT22;8858;52.308;20.994;2023-04-06T12:47:07;4.10;99.90
17483;DHT22;8858;52.308;20.994;2023-04-06T12:49:35;4.20;99.90
17483;DHT22;8858;52.308;20.994;2023-04-06T12:52:04;4.20;99.90
17483;DHT22;8858;52.308;20.994;2023-04-06T12:54:35;4.20;99.90
17483;DHT22;8858;52.308;20.994;2023-04-06T12:57:03;4.10;99.90
17483;DHT22;8858;52.308;20.994;2023-04-06T12:59:31;4.20;99.90
17483;DHT22;8858;52.308;20.994;2023-04-06T13:02:03;4.10;99.90
17483;DHT22;8858;52.308;20.994;2023-04-06T13:04:33;4.10;99.90
17483;DHT22;8858;52.308;20.994;2023-04-06T13:07:01;4.10;99.90
17483;DHT22;8858;52.308;20.994;2023-04-06T13:09:29;4.00;99.90
17483;DHT22;8858;52.308;20.994;2023-04-06T13:11:57;4.10;99.90
17483;DHT22;8858;52.308;20.994;2023-04-06T13:14:25;4.20;99.90
17483;DHT22;8858;52.308;20.994;2023-04-06T13:16:54;4.20;99.90
17483;DHT22;8858;52.308;20.994;2023-04-06T13:19:22;4.20;99.90
17483;DHT22;8858;52.308;20.994;2023-04-06T13:21:53;4.20;99.90
17483;DHT22;8858;52.308;20.994;2023-04-06T13:24:22;4.30;99.90
17483;DHT22;8858;52.308;20.994;2023-04-06T13:26:53;4.40;99.90
17483;DHT22;8858;52.308;20.994;2023-04-06T13:29:21;4.30;99.90
17483;DHT22;8858;52.308;20.994;2023-04-06T13:31:50;4.10;99.90
17483;DHT22;8858;52.308;20.994;2023-04-06T13:34:19;4.10;99.90
17483;DHT22;8858;52.308;20.994;2023-04-06T13:36:47;4.10;99.90
17483;DHT22;8858;52.308;20.994;2023-04-06T13:39:21;4.00;99.90
17483;DHT22;8858;52.308;20.994;2023-04-06T13:41:49;4.00;99.90
17483;DHT22;8858;52.308;20.994;2023-04-06T13:44:18;4.00;99.90
17483;DHT22;8858;52.308;20.994;2023-04-06T13:46:47;4.00;99.90
17483;DHT22;8858;52.308;20.994;2023-04-06T13:49:15;4.10;99.90
17483;DHT22;8858;52.308;20.994;2023-04-06T13:51:44;4.00;99.90
17483;DHT22;8858;52.308;20.994;2023-04-06T13:54:12;4.00;99.90
17483;DHT22;8858;52.308;20.994;2023-04-06T13:56:41;4.00;99.90
17483;DHT22;8858;52.308;20.994;2023-04-06T13:59:10;4.10;99.90
17483;DHT22;8858;52.308;20.994;2023-04-06T14:01:38;4.00;99.90
17483;DHT22;8858;52.308;20.994;2023-04-06T14:04:07;4.10;99.90
17483;DHT22;8858;52.308;20.994;2023-04-06T14:06:37;4.00;99.90
17483;DHT22;8858;52.308;20.994;2023-04-06T14:09:05;4.10;99.90
17483;DHT22;8858;52.308;20.994;2023-04-06T14:11:36;4.10;99.90
17483;DHT22;8858;52.308;20.994;2023-04-06T14:14:06;4.00;99.90
17483;DHT22;8858;52.308;20.994;2023-04-06T14:16:34;4.00;99.90
17483;DHT22;8858;52.308;20.994;2023-04-06T14:19:05;4.00;99.90
17483;DHT22;8858;52.308;20.994;2023-04-06T14:21:33;3.90;99.90
17483;DHT22;8858;52.308;20.994;2023-04-06T14:24:04;3.90;99.90
17483;DHT22;8858;52.308;20.994;2023-04-06T14:26:32;4.00;99.90
17483;DHT22;8858;52.308;20.994;2023-04-06T14:29:01;4.00;99.90
17483;DHT22;8858;52.308;20.994;2023-04-06T14:31:33;4.00;99.90
17483;DHT22;8858;52.308;20.994;2023-04-06T14:34:02;4.00;99.90
17483;DHT22;8858;52.308;20.994;2023-04-06T14:36:34;3.90;99.90
17483;DHT22;8858;52.308;20.994;2023-04-06T14:39:05;3.90;99.90
17483;DHT22;8858;52.308;20.994;2023-04-06T14:41:34;3.90;99.90
17483;DHT22;8858;52.308;20.994;2023-04-06T14:44:02;3.90;99.90
17483;DHT22;8858;52.308;20.994;2023-04-06T14:46:36;4.00;99.90
17483;DHT22;8858;52.308;20.994;2023-04-06T14:49:06;4.00;99.90
17483;DHT22;8858;52.308;20.994;2023-04-06T14:51:35;4.00;99.90
17483;DHT22;8858;52.308;20.994;2023-04-06T14:54:03;4.10;99.90
17483;DHT22;8858;52.308;20.994;2023-04-06T14:56:32;4.10;99.90
17483;DHT22;8858;52.308;20.994;2023-04-06T14:59:00;4.10;99.90
17483;DHT22;8858;52.308;20.994;2023-04-06T15:01:34;4.10;99.90
17483;DHT22;8858;52.308;20.994;2023-04-06T15:04:04;4.10;99.90
17483;DHT22;8858;52.308;20.994;2023-04-06T15:06:35;4.10;99.90
17483;DHT22;8858;52.308;20.994;2023-04-06T15:09:04;4.10;99.90
17483;DHT22;8858;52.308;20.994;2023-04-06T15:11:32;4.10;99.90
17483;DHT22;8858;52.308;20.994;2023-04-06T15:14:02;4.10;99.90
17483;DHT22;8858;52.308;20.994;2023-04-06T15:16:31;4.10;99.90
17483;DHT22;8858;52.308;20.994;2023-04-06T15:19:00;4.10;99.90
17483;DHT22;8858;52.308;20.994;2023-04-06T15:21:29;4.20;99.90
17483;DHT22;8858;52.308;20.994;2023-04-06T15:23:59;4.30;99.90
17483;DHT22;8858;52.308;20.994;2023-04-06T15:26:27;4.20;99.90
17483;DHT22;8858;52.308;20.994;2023-04-06T15:28:55;4.20;99.90
17483;DHT22;8858;52.308;20.994;2023-04-06T15:31:23;4.20;99.90
17483;DHT22;8858;52.308;20.994;2023-04-06T15:34:03;4.20;99.90
17483;DHT22;8858;52.308;20.994;2023-04-06T15:36:35;4.20;99.90
17483;DHT22;8858;52.308;20.994;2023-04-06T15:39:04;4.10;99.90
17483;DHT22;8858;52.308;20.994;2023-04-06T15:41:35;4.10;99.90
17483;DHT22;8858;52.308;20.994;2023-04-06T15:44:03;4.00;99.90
17483;DHT22;8858;52.308;20.994;2023-04-06T15:46:31;4.10;99.90
17483;DHT22;8858;52.308;20.994;2023-04-06T15:49:00;4.00;99.90
17483;DHT22;8858;52.308;20.994;2023-04-06T15:51:28;4.00;99.90
17483;DHT22;8858;52.308;20.994;2023-04-06T15:53:58;3.90;99.90
17483;DHT22;8858;52.308;20.994;2023-04-06T15:56:29;3.90;99.90
17483;DHT22;8858;52.308;20.994;2023-04-06T15:59:00;3.90;99.90
17483;DHT22;8858;52.308;20.994;2023-04-06T16:01:30;3.90;99.90
17483;DHT22;8858;52.308;20.994;2023-04-06T16:03:58;3.90;99.90
17483;DHT22;8858;52.308;20.994;2023-04-06T16:06:26;4.00;99.90
17483;DHT22;8858;52.308;20.994;2023-04-06T16:08:58;4.00;99.90